createdAt,value
2023-05-15T00:02:13.305Z,94256.03
2023-05-15T00:04:40.631Z,94243.53
2023-05-15T00:07:07.987Z,94254.47
2023-05-15T00:09:34.752Z,94249.97
2023-05-15T00:12:01.778Z,94244.28
2023-05-15T00:14:28.544Z,94244.16
2023-05-15T00:16:55.723Z,94244.72
2023-05-15T00:19:22.948Z,94245.03
2023-05-15T00:21:50.050Z,94241.91
2023-05-15T00:24:16.933Z,94233.56
2023-05-15T00:26:43.655Z,94234.63
2023-05-15T00:29:10.725Z,94238.13
2023-05-15T00:31:39.543Z,94233.25
2023-05-15T00:34:06.519Z,94242.16
2023-05-15T00:36:33.734Z,94233.56
2023-05-15T00:39:00.653Z,94241.44
2023-05-15T00:41:28.884Z,94239.88
2023-05-15T00:43:56.105Z,94234.81
2023-05-15T00:46:24.824Z,94237.19
2023-05-15T00:48:52.149Z,94232.44
2023-05-15T00:51:18.898Z,94231.44
2023-05-15T00:53:45.984Z,94237.66
2023-05-15T00:56:12.836Z,94229.00
2023-05-15T00:58:40.103Z,94236.25
2023-05-15T01:01:08.493Z,94244.56
2023-05-15T01:03:37.466Z,94234.41
2023-05-15T01:06:04.477Z,94234.28
2023-05-15T01:08:47.336Z,94231.63
2023-05-15T01:11:16.200Z,94237.50
2023-05-15T01:13:43.882Z,94231.13
2023-05-15T01:16:11.288Z,94237.13
2023-05-15T01:18:39.013Z,94237.00
2023-05-15T01:21:40.966Z,94233.38
2023-05-15T01:24:45.697Z,94225.97
2023-05-15T01:27:25.272Z,94222.22
2023-05-15T01:30:12.597Z,94226.47
2023-05-15T01:32:51.199Z,94232.94
2023-05-15T01:35:28.619Z,94231.25
2023-05-15T01:38:15.635Z,94229.41
2023-05-15T01:40:44.979Z,94229.38
2023-05-15T01:43:14.222Z,94226.78
2023-05-15T01:45:43.180Z,94227.88
2023-05-15T01:48:13.211Z,94233.66
2023-05-15T01:50:43.060Z,94234.66
2023-05-15T01:53:11.406Z,94230.34
2023-05-15T01:55:40.273Z,94234.47
2023-05-15T01:58:07.377Z,94233.84
2023-05-15T02:00:35.919Z,94228.47
2023-05-15T02:03:05.951Z,94229.91
2023-05-15T02:05:34.648Z,94224.72
2023-05-15T02:08:03.652Z,94220.59
2023-05-15T02:10:31.955Z,94222.31
2023-05-15T02:13:00.102Z,94227.56
2023-05-15T02:15:28.411Z,94233.97
2023-05-15T02:17:55.593Z,94215.91
2023-05-15T02:20:22.494Z,94215.59
2023-05-15T02:22:49.689Z,94213.63
2023-05-15T02:25:16.437Z,94225.72
2023-05-15T02:27:53.766Z,94221.78
2023-05-15T02:30:33.204Z,94221.59
2023-05-15T02:33:34.921Z,94214.06
2023-05-15T02:36:16.958Z,94222.88
2023-05-15T02:38:53.164Z,94221.31
2023-05-15T02:41:22.032Z,94210.94
2023-05-15T02:43:53.163Z,94211.34
2023-05-15T02:46:21.740Z,94204.84
2023-05-15T02:48:49.352Z,94212.53
2023-05-15T02:51:16.135Z,94212.50
2023-05-15T02:53:43.279Z,94212.91
2023-05-15T02:56:10.338Z,94214.69
2023-05-15T02:58:39.340Z,94214.75
2023-05-15T03:01:06.266Z,94216.69
2023-05-15T03:03:33.417Z,94214.88
2023-05-15T03:06:01.113Z,94223.97
2023-05-15T03:08:28.808Z,94217.84
2023-05-15T03:10:55.756Z,94212.28
2023-05-15T03:13:22.971Z,94218.78
2023-05-15T03:15:50.076Z,94215.19
2023-05-15T03:18:19.138Z,94212.84
2023-05-15T03:20:48.532Z,94214.41
2023-05-15T03:23:15.510Z,94207.66
2023-05-15T03:25:42.370Z,94212.28
2023-05-15T03:28:09.881Z,94218.94
2023-05-15T03:30:36.598Z,94216.66
2023-05-15T03:33:04.160Z,94218.31
2023-05-15T03:35:32.620Z,94209.28
2023-05-15T03:37:59.418Z,94206.47
2023-05-15T03:40:26.193Z,94208.28
2023-05-15T03:42:53.867Z,94204.75
2023-05-15T03:45:21.324Z,94209.84
2023-05-15T03:47:49.277Z,94207.94
2023-05-15T03:50:16.390Z,94209.38
2023-05-15T03:52:43.328Z,94215.78
2023-05-15T03:55:10.543Z,94216.75
2023-05-15T03:57:37.418Z,94215.97
2023-05-15T04:00:10.228Z,94222.28
2023-05-15T04:02:41.477Z,94219.13
2023-05-15T04:05:09.634Z,94211.13
2023-05-15T04:07:37.296Z,94213.72
2023-05-15T04:10:04.645Z,94216.28
2023-05-15T04:12:35.585Z,94213.13
2023-05-15T04:15:15.710Z,94220.19
2023-05-15T04:17:43.497Z,94223.59
2023-05-15T04:20:14.326Z,94217.09
2023-05-15T04:22:42.680Z,94218.88
2023-05-15T04:25:11.067Z,94216.47
2023-05-15T04:27:38.770Z,94226.94
2023-05-15T04:30:06.916Z,94219.91
2023-05-15T04:32:34.277Z,94217.09
2023-05-15T04:35:01.469Z,94223.50
2023-05-15T04:37:29.007Z,94214.09
2023-05-15T04:39:55.813Z,94218.94
2023-05-15T04:42:22.539Z,94221.81
2023-05-15T04:44:49.660Z,94214.22
2023-05-15T04:47:16.769Z,94217.41
2023-05-15T04:49:43.560Z,94230.38
2023-05-15T04:52:10.732Z,94215.88
2023-05-15T04:54:37.452Z,94219.75
2023-05-15T04:57:04.646Z,94226.34
2023-05-15T04:59:31.452Z,94223.63
2023-05-15T05:01:58.465Z,94230.00
2023-05-15T05:04:26.264Z,94234.53
2023-05-15T05:06:52.967Z,94230.34
2023-05-15T05:09:20.169Z,94232.28
2023-05-15T05:11:47.577Z,94229.19
2023-05-15T05:14:15.715Z,94238.69
2023-05-15T05:16:45.171Z,94227.13
2023-05-15T05:19:12.307Z,94240.31
2023-05-15T05:21:39.528Z,94238.13
2023-05-15T05:24:06.360Z,94238.59
2023-05-15T05:26:33.090Z,94244.84
2023-05-15T05:28:59.809Z,94248.31
2023-05-15T05:31:26.586Z,94250.06
2023-05-15T05:33:53.378Z,94254.47
2023-05-15T05:36:20.485Z,94247.16
2023-05-15T05:38:47.256Z,94254.72
2023-05-15T05:41:14.048Z,94259.94
2023-05-15T05:43:41.283Z,94257.63
2023-05-15T05:46:08.089Z,94255.03
2023-05-15T05:48:35.124Z,94256.38
2023-05-15T05:51:02.029Z,94256.91
2023-05-15T05:53:28.884Z,94259.56
2023-05-15T05:55:56.772Z,94263.00
2023-05-15T05:58:25.940Z,94272.72
2023-05-15T06:00:53.763Z,94268.69
2023-05-15T06:03:21.368Z,94266.50
2023-05-15T06:05:48.757Z,94267.09
2023-05-15T06:08:15.896Z,94266.38
2023-05-15T06:10:42.821Z,94275.16
2023-05-15T06:13:10.279Z,94278.97
2023-05-15T06:15:37.520Z,94265.78
2023-05-15T06:18:04.531Z,94271.25
2023-05-15T06:20:31.460Z,94267.34
2023-05-15T06:22:58.182Z,94271.41
2023-05-15T06:25:25.672Z,94285.34
2023-05-15T06:27:52.365Z,94283.13
2023-05-15T06:30:19.084Z,94284.03
2023-05-15T06:32:46.178Z,94285.97
2023-05-15T06:35:13.125Z,94278.81
2023-05-15T06:37:40.701Z,94287.72
2023-05-15T06:40:08.015Z,94283.22
2023-05-15T06:42:34.816Z,94274.47
2023-05-15T06:45:01.678Z,94290.78
2023-05-15T06:47:28.505Z,94289.88
2023-05-15T06:49:55.914Z,94290.56
2023-05-15T06:52:22.687Z,94290.19
2023-05-15T06:54:49.725Z,94288.59
2023-05-15T06:57:16.512Z,94298.94
2023-05-15T06:59:43.469Z,94293.19
2023-05-15T07:02:11.084Z,94292.50
2023-05-15T07:04:37.913Z,94297.34
2023-05-15T07:07:05.098Z,94297.28
2023-05-15T07:09:31.893Z,94303.59
2023-05-15T07:11:58.667Z,94308.09
2023-05-15T07:14:26.167Z,94299.06
2023-05-15T07:16:52.921Z,94301.13
2023-05-15T07:19:22.565Z,94295.38
2023-05-15T07:21:49.315Z,94300.50
2023-05-15T07:24:16.022Z,94298.19
2023-05-15T07:26:54.259Z,94304.44
2023-05-15T07:29:26.271Z,94305.03
2023-05-15T07:31:53.554Z,94298.53
2023-05-15T07:34:20.881Z,94305.13
2023-05-15T07:36:47.523Z,94303.38
2023-05-15T07:39:14.429Z,94295.50
2023-05-15T07:41:41.440Z,94302.41
2023-05-15T07:44:08.353Z,94298.72
2023-05-15T07:46:35.579Z,94300.59
2023-05-15T07:49:03.583Z,94292.25
2023-05-15T07:51:30.469Z,94297.84
2023-05-15T07:53:57.899Z,94296.25
2023-05-15T07:56:25.243Z,94297.88
2023-05-15T07:58:54.144Z,94292.38
2023-05-15T08:01:20.904Z,94288.97
2023-05-15T08:03:47.748Z,94292.94
2023-05-15T08:06:14.913Z,94297.03
2023-05-15T08:08:42.799Z,94293.03
2023-05-15T08:11:09.535Z,94296.00
2023-05-15T08:13:36.697Z,94277.50
2023-05-15T08:16:03.815Z,94286.78
2023-05-15T08:18:30.790Z,94290.28
2023-05-15T08:20:58.686Z,94286.94
2023-05-15T08:23:26.696Z,94290.75
2023-05-15T08:25:53.537Z,94296.38
2023-05-15T08:28:20.285Z,94290.06
2023-05-15T08:30:47.332Z,94296.06
2023-05-15T08:33:14.321Z,94281.03
2023-05-15T08:35:42.196Z,94307.44
2023-05-15T08:38:09.193Z,94304.06
2023-05-15T08:40:39.812Z,94273.19
2023-05-15T08:43:15.767Z,94281.81
2023-05-15T08:45:43.916Z,94295.88
2023-05-15T08:48:16.328Z,94294.19
2023-05-15T08:50:44.616Z,94277.50
2023-05-15T08:53:13.685Z,94282.44
2023-05-15T08:55:42.045Z,94267.63
2023-05-15T08:58:09.807Z,94272.16
2023-05-15T09:00:37.723Z,94280.34
2023-05-15T09:03:05.116Z,94288.50
2023-05-15T09:05:32.147Z,94276.13
2023-05-15T09:08:02.148Z,94270.41
2023-05-15T09:10:29.878Z,94289.88
2023-05-15T09:12:58.493Z,94263.81
2023-05-15T09:15:25.757Z,94240.22
2023-05-15T09:17:53.290Z,94271.34
2023-05-15T09:20:29.979Z,94262.97
2023-05-15T09:22:58.820Z,94266.72
2023-05-15T09:25:39.853Z,94265.94
2023-05-15T09:28:09.032Z,94262.47
2023-05-15T09:30:39.426Z,94281.91
2023-05-15T09:33:06.666Z,94280.19
2023-05-15T09:35:39.169Z,94274.56
2023-05-15T09:38:12.462Z,94273.97
2023-05-15T09:40:43.318Z,94248.25
2023-05-15T09:43:12.656Z,94247.75
2023-05-15T09:45:39.538Z,94270.06
2023-05-15T09:48:08.251Z,94268.84
2023-05-15T09:50:37.217Z,94284.09
2023-05-15T09:53:05.236Z,94278.78
2023-05-15T09:55:36.205Z,94272.22
2023-05-15T09:58:13.109Z,94280.31
2023-05-15T10:00:47.264Z,94279.34
2023-05-15T10:03:15.453Z,94273.06
2023-05-15T10:05:44.486Z,94273.22
2023-05-15T10:08:12.459Z,94264.78
2023-05-15T10:10:39.823Z,94268.81
2023-05-15T10:13:08.517Z,94260.06
2023-05-15T10:15:35.770Z,94271.00
2023-05-15T10:18:05.000Z,94265.69
2023-05-15T10:20:35.656Z,94264.59
2023-05-15T10:23:05.145Z,94268.38
2023-05-15T10:25:54.422Z,94286.78
2023-05-15T10:28:22.635Z,94252.47
2023-05-15T10:30:49.580Z,94237.31
2023-05-15T10:33:16.985Z,94235.38
2023-05-15T10:35:46.960Z,94210.50
2023-05-15T10:38:15.962Z,94270.41
2023-05-15T10:40:44.562Z,94248.81
2023-05-15T10:43:14.691Z,94217.03
2023-05-15T10:45:41.957Z,94292.31
2023-05-15T10:48:12.239Z,94257.38
2023-05-15T10:50:40.189Z,94247.09
2023-05-15T10:53:09.286Z,94137.16
2023-05-15T10:55:36.981Z,94177.09
2023-05-15T10:58:09.719Z,94171.38
2023-05-15T11:00:44.862Z,94222.63
2023-05-15T11:03:16.697Z,94234.25
2023-05-15T11:06:13.579Z,94224.94
2023-05-15T11:08:45.357Z,94207.19
2023-05-15T11:12:00.509Z,94213.03
2023-05-15T11:14:29.706Z,94206.84
2023-05-15T11:16:58.743Z,94212.66
2023-05-15T11:19:28.742Z,94216.00
2023-05-15T11:22:17.228Z,94209.34
2023-05-15T11:24:54.660Z,94213.72
2023-05-15T11:27:31.961Z,94208.78
2023-05-15T11:30:05.008Z,94218.44
2023-05-15T11:32:40.355Z,94209.06
2023-05-15T11:35:22.873Z,94210.91
2023-05-15T11:37:54.917Z,94213.53
2023-05-15T11:40:23.364Z,94216.59
2023-05-15T11:43:01.605Z,94227.72
2023-05-15T11:45:31.343Z,94238.38
2023-05-15T11:48:02.505Z,94234.31
2023-05-15T11:50:32.582Z,94233.06
2023-05-15T11:53:04.127Z,94235.47
2023-05-15T11:55:33.320Z,94241.31
2023-05-15T11:58:01.533Z,94237.28
2023-05-15T12:00:29.177Z,94242.19
2023-05-15T12:02:56.691Z,94240.69
2023-05-15T12:05:24.569Z,94228.13
2023-05-15T12:07:51.963Z,94238.00
2023-05-15T12:10:18.788Z,94235.50
2023-05-15T12:12:46.626Z,94236.72
2023-05-15T12:15:15.578Z,94238.13
2023-05-15T12:17:44.130Z,94234.22
2023-05-15T12:20:16.078Z,94243.00
2023-05-15T12:22:42.828Z,94230.13
2023-05-15T12:25:12.482Z,94245.25
2023-05-15T12:27:40.061Z,94236.56
2023-05-15T12:30:07.936Z,94244.56
2023-05-15T12:32:36.630Z,94233.88
2023-05-15T12:35:04.957Z,94226.91
2023-05-15T12:37:36.001Z,94228.06
2023-05-15T12:40:11.741Z,94219.00
2023-05-15T12:42:39.915Z,94221.19
2023-05-15T12:45:14.864Z,94222.25
2023-05-15T12:47:44.171Z,94219.56
2023-05-15T12:50:16.378Z,94216.41
2023-05-15T12:53:03.571Z,94213.16
2023-05-15T12:55:35.340Z,94212.03
2023-05-15T12:58:07.207Z,94209.31
2023-05-15T13:00:36.231Z,94214.56
2023-05-15T13:03:04.292Z,94221.16
2023-05-15T13:05:35.682Z,94217.69
2023-05-15T13:08:04.286Z,94230.34
2023-05-15T13:10:36.784Z,94245.38
2023-05-15T13:13:03.866Z,94256.00
2023-05-15T13:15:35.411Z,94264.53
2023-05-15T13:18:11.412Z,94269.06
2023-05-15T13:20:46.650Z,94277.25
2023-05-15T13:23:19.183Z,94276.13
2023-05-15T13:25:48.552Z,94277.38
2023-05-15T13:28:16.370Z,94278.94
2023-05-15T13:30:43.404Z,94286.56
2023-05-15T13:33:11.928Z,94287.72
2023-05-15T13:35:40.258Z,94295.72
2023-05-15T13:38:10.354Z,94306.63
2023-05-15T13:40:38.316Z,94304.94
2023-05-15T13:43:06.842Z,94301.81
2023-05-15T13:45:34.000Z,94301.28
2023-05-15T13:48:01.861Z,94298.81
2023-05-15T13:50:28.786Z,94297.00
2023-05-15T13:52:56.104Z,94300.03
2023-05-15T13:55:23.401Z,94294.63
2023-05-15T13:57:51.371Z,94290.50
2023-05-15T14:00:19.316Z,94284.25
2023-05-15T14:02:46.948Z,94294.53
2023-05-15T14:05:15.808Z,94301.75
2023-05-15T14:07:42.863Z,94287.72
2023-05-15T14:10:11.356Z,94280.38
2023-05-15T14:12:38.504Z,94276.19
2023-05-15T14:15:05.972Z,94275.50
2023-05-15T14:17:33.010Z,94263.16
2023-05-15T14:20:00.979Z,94265.16
2023-05-15T14:22:27.798Z,94274.81
2023-05-15T14:24:54.876Z,94281.25
2023-05-15T14:27:21.596Z,94273.19
2023-05-15T14:29:49.490Z,94262.31
2023-05-15T14:32:17.523Z,94269.63
2023-05-15T14:34:44.741Z,94279.53
2023-05-15T14:37:12.607Z,94274.88
2023-05-15T14:39:39.411Z,94281.34
2023-05-15T14:42:06.945Z,94272.88
2023-05-15T14:44:34.822Z,94270.03
2023-05-15T14:47:10.396Z,94270.84
2023-05-15T14:49:37.895Z,94272.81
2023-05-15T14:52:08.226Z,94265.53
2023-05-15T14:54:35.916Z,94267.34
2023-05-15T14:57:02.693Z,94264.94
2023-05-15T14:59:29.686Z,94268.91
2023-05-15T15:01:56.761Z,94269.34
2023-05-15T15:04:23.553Z,94270.88
2023-05-15T15:06:50.467Z,94270.03
2023-05-15T15:09:21.444Z,94259.19
2023-05-15T15:11:48.936Z,94266.63
2023-05-15T15:14:16.809Z,94261.50
2023-05-15T15:16:44.344Z,94272.31
2023-05-15T15:19:11.685Z,94273.75
2023-05-15T15:21:38.596Z,94269.53
2023-05-15T15:24:05.835Z,94268.50
2023-05-15T15:26:33.566Z,94267.22
2023-05-15T15:29:02.125Z,94270.13
2023-05-15T15:31:30.308Z,94273.06
2023-05-15T15:33:58.907Z,94260.25
2023-05-15T15:36:26.396Z,94266.38
2023-05-15T15:38:53.318Z,94277.16
2023-05-15T15:41:23.661Z,94275.75
2023-05-15T15:43:50.731Z,94282.81
2023-05-15T15:46:18.591Z,94287.66
2023-05-15T15:48:45.526Z,94283.28
2023-05-15T15:51:12.568Z,94286.88
2023-05-15T15:53:39.292Z,94301.19
2023-05-15T15:56:07.639Z,94300.63
2023-05-15T15:58:34.518Z,94297.69
2023-05-15T16:01:03.706Z,94303.66
2023-05-15T16:03:32.285Z,94304.00
2023-05-15T16:06:00.296Z,94290.78
2023-05-15T16:08:27.536Z,94300.97
2023-05-15T16:10:55.007Z,94291.31
2023-05-15T16:13:21.847Z,94293.75
2023-05-15T16:15:49.725Z,94272.25
2023-05-15T16:18:17.685Z,94284.13
2023-05-15T16:20:44.556Z,94280.84
2023-05-15T16:23:15.060Z,94277.19
2023-05-15T16:25:43.325Z,94288.56
2023-05-15T16:28:10.271Z,94278.91
2023-05-15T16:30:48.134Z,94273.06
2023-05-15T16:33:18.816Z,94283.47
2023-05-15T16:35:47.619Z,94286.16
2023-05-15T16:38:14.718Z,94288.28
2023-05-15T16:40:41.626Z,94289.88
2023-05-15T16:43:08.501Z,94298.38
2023-05-15T16:45:35.501Z,94296.72
2023-05-15T16:48:03.238Z,94297.94
2023-05-15T16:50:33.057Z,94296.78
2023-05-15T16:52:59.887Z,94295.66
2023-05-15T16:55:26.938Z,94286.50
2023-05-15T16:57:54.073Z,94287.78
2023-05-15T17:00:21.535Z,94294.78
2023-05-15T17:02:50.155Z,94293.09
2023-05-15T17:05:18.096Z,94299.59
2023-05-15T17:07:45.304Z,94302.38
2023-05-15T17:10:13.237Z,94300.53
2023-05-15T17:12:40.464Z,94295.63
2023-05-15T17:15:07.895Z,94303.91
2023-05-15T17:17:34.920Z,94296.25
2023-05-15T17:20:03.589Z,94300.03
2023-05-15T17:22:30.593Z,94294.56
2023-05-15T17:24:57.538Z,94292.03
2023-05-15T17:27:24.614Z,94290.09
2023-05-15T17:29:52.179Z,94286.56
2023-05-15T17:32:20.663Z,94294.44
2023-05-15T17:34:48.366Z,94295.16
2023-05-15T17:37:15.268Z,94296.66
2023-05-15T17:39:42.770Z,94292.66
2023-05-15T17:42:09.774Z,94296.03
2023-05-15T17:44:37.177Z,94294.72
2023-05-15T17:47:05.906Z,94300.63
2023-05-15T17:49:34.671Z,94297.63
2023-05-15T17:52:01.494Z,94307.19
2023-05-15T17:54:28.859Z,94304.72
2023-05-15T17:56:55.598Z,94306.66
2023-05-15T17:59:22.629Z,94312.28
2023-05-15T18:01:51.190Z,94304.56
2023-05-15T18:04:18.890Z,94316.41
2023-05-15T18:06:45.695Z,94317.72
2023-05-15T18:09:12.902Z,94326.94
2023-05-15T18:11:39.692Z,94318.41
2023-05-15T18:14:06.714Z,94325.22
2023-05-15T18:16:35.120Z,94335.53
2023-05-15T18:19:01.919Z,94331.13
2023-05-15T18:21:29.114Z,94338.19
2023-05-15T18:23:56.104Z,94347.31
2023-05-15T18:26:23.099Z,94340.41
2023-05-15T18:28:50.569Z,94347.22
2023-05-15T18:31:17.748Z,94353.91
2023-05-15T18:33:45.816Z,94359.88
2023-05-15T18:36:12.693Z,94371.38
2023-05-15T18:38:39.743Z,94371.50
2023-05-15T18:41:06.695Z,94363.75
2023-05-15T18:43:34.320Z,94360.94
2023-05-15T18:46:01.200Z,94368.72
2023-05-15T18:48:28.538Z,94363.13
2023-05-15T18:50:55.921Z,94371.25
2023-05-15T18:53:23.122Z,94363.44
2023-05-15T18:55:50.787Z,94366.41
2023-05-15T18:58:17.635Z,94367.09
2023-05-15T19:00:44.981Z,94363.16
2023-05-15T19:03:12.301Z,94373.94
2023-05-15T19:05:39.096Z,94382.16
2023-05-15T19:08:07.326Z,94368.63
2023-05-15T19:10:34.855Z,94369.56
2023-05-15T19:13:01.985Z,94372.97
2023-05-15T19:15:28.904Z,94379.47
2023-05-15T19:17:55.964Z,94382.44
2023-05-15T19:20:23.168Z,94382.50
2023-05-15T19:22:51.330Z,94379.53
2023-05-15T19:25:20.147Z,94391.13
2023-05-15T19:27:46.938Z,94391.84
2023-05-15T19:30:14.114Z,94389.22
2023-05-15T19:32:41.291Z,94397.38
2023-05-15T19:35:09.081Z,94397.09
2023-05-15T19:37:36.548Z,94398.19
2023-05-15T19:40:05.157Z,94398.53
2023-05-15T19:42:31.946Z,94383.75
2023-05-15T19:44:58.932Z,94391.38
2023-05-15T19:47:26.882Z,94391.28
2023-05-15T19:49:54.083Z,94389.16
2023-05-15T19:52:21.587Z,94389.72
2023-05-15T19:54:48.679Z,94388.28
2023-05-15T19:57:16.323Z,94385.13
2023-05-15T19:59:43.086Z,94387.50
2023-05-15T20:02:11.230Z,94383.72
2023-05-15T20:04:39.120Z,94392.06
2023-05-15T20:07:07.226Z,94392.38
2023-05-15T20:09:36.770Z,94383.25
2023-05-15T20:12:07.695Z,94379.19
2023-05-15T20:14:35.172Z,94387.91
2023-05-15T20:17:02.132Z,94389.34
2023-05-15T20:19:31.511Z,94379.94
2023-05-15T20:21:58.287Z,94385.31
2023-05-15T20:24:26.359Z,94386.81
2023-05-15T20:26:53.228Z,94388.75
2023-05-15T20:29:21.331Z,94391.88
2023-05-15T20:31:48.208Z,94391.13
2023-05-15T20:34:15.104Z,94390.94
2023-05-15T20:36:42.534Z,94396.47
2023-05-15T20:39:09.884Z,94391.91
2023-05-15T20:41:37.698Z,94387.03
2023-05-15T20:44:05.297Z,94388.13
2023-05-15T20:46:32.290Z,94382.72
2023-05-15T20:48:59.230Z,94382.97
2023-05-15T20:51:26.199Z,94379.47
2023-05-15T20:53:53.114Z,94381.78
2023-05-15T20:56:20.703Z,94380.34
2023-05-15T20:58:47.546Z,94384.94
2023-05-15T21:01:16.156Z,94389.16
2023-05-15T21:03:43.333Z,94392.16
2023-05-15T21:06:10.248Z,94388.34
2023-05-15T21:08:37.157Z,94390.00
2023-05-15T21:11:03.918Z,94390.50
2023-05-15T21:13:30.993Z,94383.91
2023-05-15T21:15:57.701Z,94394.72
2023-05-15T21:18:25.018Z,94387.63
2023-05-15T21:20:53.018Z,94379.38
2023-05-15T21:23:21.792Z,94381.75
2023-05-15T21:25:48.480Z,94385.81
2023-05-15T21:28:15.961Z,94392.31
2023-05-15T21:30:42.952Z,94391.44
2023-05-15T21:33:10.246Z,94389.66
2023-05-15T21:35:38.126Z,94390.06
2023-05-15T21:38:06.103Z,94399.91
2023-05-15T21:40:33.077Z,94388.88
2023-05-15T21:43:00.207Z,94386.69
2023-05-15T21:45:26.920Z,94396.63
2023-05-15T21:47:53.775Z,94396.72
2023-05-15T21:50:21.086Z,94396.38
2023-05-15T21:52:51.153Z,94398.25
2023-05-15T21:55:18.596Z,94391.56
2023-05-15T21:57:45.476Z,94394.72
2023-05-15T22:00:12.516Z,94402.91
2023-05-15T22:02:39.285Z,94402.47
2023-05-15T22:05:07.349Z,94411.13
2023-05-15T22:07:34.081Z,94401.16
2023-05-15T22:10:03.132Z,94404.81
2023-05-15T22:12:30.365Z,94396.72
2023-05-15T22:14:59.461Z,94408.88
2023-05-15T22:17:29.203Z,94412.00
2023-05-15T22:20:07.901Z,94414.03
2023-05-15T22:22:36.016Z,94420.72
2023-05-15T22:25:03.421Z,94418.47
2023-05-15T22:27:30.631Z,94414.66
2023-05-15T22:29:57.626Z,94415.06
2023-05-15T22:32:24.717Z,94415.34
2023-05-15T22:34:51.689Z,94417.13
2023-05-15T22:37:18.446Z,94410.00
2023-05-15T22:39:45.850Z,94417.88
2023-05-15T22:42:12.616Z,94407.47
2023-05-15T22:44:39.346Z,94410.63
2023-05-15T22:47:06.801Z,94413.47
2023-05-15T22:49:33.861Z,94413.84
2023-05-15T22:52:00.968Z,94412.59
2023-05-15T22:54:27.686Z,94401.56
2023-05-15T22:56:54.751Z,94400.75
2023-05-15T22:59:22.039Z,94406.47
2023-05-15T23:01:49.721Z,94407.94
2023-05-15T23:04:17.660Z,94402.59
2023-05-15T23:06:44.559Z,94403.19
2023-05-15T23:09:11.841Z,94401.78
2023-05-15T23:11:38.796Z,94400.00
2023-05-15T23:14:05.755Z,94399.47
2023-05-15T23:16:32.474Z,94395.22
2023-05-15T23:18:59.762Z,94391.41
2023-05-15T23:21:27.065Z,94393.97
2023-05-15T23:23:53.892Z,94394.81
2023-05-15T23:26:20.959Z,94391.25
2023-05-15T23:28:47.777Z,94390.13
2023-05-15T23:31:14.675Z,94390.56
2023-05-15T23:33:41.574Z,94382.47
2023-05-15T23:36:08.938Z,94383.41
2023-05-15T23:38:36.176Z,94380.41
2023-05-15T23:41:03.026Z,94377.31
2023-05-15T23:43:29.842Z,94381.69
2023-05-15T23:45:56.675Z,94378.41
2023-05-15T23:48:23.774Z,94380.19
2023-05-15T23:50:52.440Z,94384.66
2023-05-15T23:53:19.321Z,94380.97
2023-05-15T23:55:46.099Z,94375.09
2023-05-15T23:58:12.962Z,94377.91
